sensor_id;sensor_type;location;lat;lon;timestamp;pressure;altitude;pressure_sealevel;temperature;humidity
35908;BME280;22003;50.320;8.054;2022-09-02T04:02:01;99780.97;;;10.64;89.96
35908;BME280;22003;50.320;8.054;2022-09-02T04:04:27;99785.41;;;10.41;89.90
35908;BME280;22003;50.320;8.054;2022-09-02T04:06:53;99779.72;;;10.23;90.02
35908;BME280;22003;50.320;8.054;2022-09-02T04:09:18;99762.91;;;10.36;90.31
35908;BME280;22003;50.320;8.054;2022-09-02T04:11:44;99781.78;;;10.31;89.14
35908;BME280;22003;50.320;8.054;2022-09-02T04:14:09;99766.19;;;10.73;88.73
35908;BME280;22003;50.320;8.054;2022-09-02T04:16:35;99779.91;;;10.55;88.92
35908;BME280;22003;50.320;8.054;2022-09-02T04:19:01;99768.47;;;10.20;89.13
35908;BME280;22003;50.320;8.054;2022-09-02T04:21:28;99785.09;;;10.11;91.11
35908;BME280;22003;50.320;8.054;2022-09-02T04:23:55;99784.50;;;10.18;92.74
35908;BME280;22003;50.320;8.054;2022-09-02T04:26:20;99765.41;;;10.26;91.06
35908;BME280;22003;50.320;8.054;2022-09-02T04:28:47;99775.78;;;10.40;90.39
35908;BME280;22003;50.320;8.054;2022-09-02T04:31:15;99782.06;;;10.50;91.86
35908;BME280;22003;50.320;8.054;2022-09-02T04:33:41;99778.69;;;10.48;92.10
35908;BME280;22003;50.320;8.054;2022-09-02T04:36:09;99757.34;;;10.27;91.88
35908;BME280;22003;50.320;8.054;2022-09-02T04:38:35;99797.94;;;10.39;92.94
35908;BME280;22003;50.320;8.054;2022-09-02T04:41:27;99792.63;;;10.28;92.71
35908;BME280;22003;50.320;8.054;2022-09-02T04:43:52;99785.25;;;10.31;93.27
35908;BME280;22003;50.320;8.054;2022-09-02T04:46:18;99785.69;;;10.14;94.28
35908;BME280;22003;50.320;8.054;2022-09-02T04:48:44;99778.91;;;10.10;94.88
35908;BME280;22003;50.320;8.054;2022-09-02T04:51:14;99778.31;;;10.07;95.04
35908;BME280;22003;50.320;8.054;2022-09-02T04:53:41;99792.31;;;10.20;95.19
35908;BME280;22003;50.320;8.054;2022-09-02T04:56:09;99793.13;;;10.33;94.20
35908;BME280;22003;50.320;8.054;2022-09-02T04:58:36;99794.09;;;10.54;92.43
35908;BME280;22003;50.320;8.054;2022-09-02T05:01:06;99781.97;;;10.63;91.81
35908;BME280;22003;50.320;8.054;2022-09-02T05:03:31;99766.41;;;10.47;91.42
35908;BME280;22003;50.320;8.054;2022-09-02T05:05:59;99790.38;;;10.57;92.25
35908;BME280;22003;50.320;8.054;2022-09-02T05:08:24;99761.22;;;10.46;92.11
35908;BME280;22003;50.320;8.054;2022-09-02T05:10:50;99769.31;;;10.44;92.37
35908;BME280;22003;50.320;8.054;2022-09-02T05:13:17;99765.44;;;10.48;93.21
35908;BME280;22003;50.320;8.054;2022-09-02T05:15:42;99781.59;;;10.90;92.07
35908;BME280;22003;50.320;8.054;2022-09-02T05:18:09;99801.47;;;10.84;92.04
35908;BME280;22003;50.320;8.054;2022-09-02T05:20:37;99787.97;;;10.99;92.21
35908;BME280;22003;50.320;8.054;2022-09-02T05:23:03;99775.09;;;10.94;92.22
35908;BME280;22003;50.320;8.054;2022-09-02T05:25:29;99789.69;;;11.11;91.19
35908;BME280;22003;50.320;8.054;2022-09-02T05:27:54;99787.13;;;10.98;91.82
35908;BME280;22003;50.320;8.054;2022-09-02T05:30:19;99788.84;;;11.10;93.90
35908;BME280;22003;50.320;8.054;2022-09-02T05:32:44;99800.28;;;11.00;93.16
35908;BME280;22003;50.320;8.054;2022-09-02T05:35:10;99793.88;;;11.14;92.79
35908;BME280;22003;50.320;8.054;2022-09-02T05:37:35;99782.56;;;11.12;94.33
35908;BME280;22003;50.320;8.054;2022-09-02T05:40:01;99807.22;;;11.46;92.78
35908;BME280;22003;50.320;8.054;2022-09-02T05:42:26;99779.53;;;11.27;92.77
35908;BME280;22003;50.320;8.054;2022-09-02T05:44:52;99800.28;;;11.66;93.08
35908;BME280;22003;50.320;8.054;2022-09-02T05:47:18;99777.16;;;11.56;92.13
35908;BME280;22003;50.320;8.054;2022-09-02T05:49:43;99777.59;;;11.73;90.45
35908;BME280;22003;50.320;8.054;2022-09-02T05:52:11;99795.44;;;11.82;91.49
35908;BME280;22003;50.320;8.054;2022-09-02T05:54:38;99793.53;;;11.73;91.95
35908;BME280;22003;50.320;8.054;2022-09-02T05:57:07;99794.50;;;11.83;92.37
35908;BME280;22003;50.320;8.054;2022-09-02T05:59:35;99794.50;;;12.04;91.90
35908;BME280;22003;50.320;8.054;2022-09-02T06:02:02;99784.81;;;12.14;91.34
35908;BME280;22003;50.320;8.054;2022-09-02T06:04:28;99793.03;;;12.32;90.31
35908;BME280;22003;50.320;8.054;2022-09-02T06:06:53;99785.06;;;12.53;88.77
35908;BME280;22003;50.320;8.054;2022-09-02T06:09:21;99785.72;;;12.45;89.89
35908;BME280;22003;50.320;8.054;2022-09-02T06:11:47;99785.41;;;12.38;90.53
35908;BME280;22003;50.320;8.054;2022-09-02T06:14:19;99794.59;;;12.55;89.14
35908;BME280;22003;50.320;8.054;2022-09-02T06:16:46;99793.63;;;12.56;89.75
35908;BME280;22003;50.320;8.054;2022-09-02T06:19:11;99787.50;;;12.65;89.57
35908;BME280;22003;50.320;8.054;2022-09-02T06:21:37;99787.41;;;12.77;89.21
35908;BME280;22003;50.320;8.054;2022-09-02T06:24:08;99789.69;;;12.81;88.04
35908;BME280;22003;50.320;8.054;2022-09-02T06:26:34;99788.88;;;13.21;87.19
35908;BME280;22003;50.320;8.054;2022-09-02T06:29:00;99795.69;;;13.14;86.07
35908;BME280;22003;50.320;8.054;2022-09-02T06:31:25;99776.53;;;13.20;86.24
35908;BME280;22003;50.320;8.054;2022-09-02T06:33:53;99796.34;;;13.37;86.05
35908;BME280;22003;50.320;8.054;2022-09-02T06:36:19;99802.53;;;13.47;86.09
35908;BME280;22003;50.320;8.054;2022-09-02T06:38:47;99791.38;;;13.92;82.81
35908;BME280;22003;50.320;8.054;2022-09-02T06:41:13;99794.03;;;13.63;84.01
35908;BME280;22003;50.320;8.054;2022-09-02T06:43:40;99786.75;;;13.74;84.16
35908;BME280;22003;50.320;8.054;2022-09-02T06:46:06;99789.56;;;14.02;84.10
35908;BME280;22003;50.320;8.054;2022-09-02T06:48:31;99778.91;;;14.12;82.86
35908;BME280;22003;50.320;8.054;2022-09-02T06:50:56;99795.88;;;14.30;82.20
35908;BME280;22003;50.320;8.054;2022-09-02T06:53:22;99785.94;;;14.22;82.47
35908;BME280;22003;50.320;8.054;2022-09-02T06:55:49;99765.97;;;14.36;81.11
35908;BME280;22003;50.320;8.054;2022-09-02T06:58:14;99782.53;;;14.40;82.02
35908;BME280;22003;50.320;8.054;2022-09-02T07:00:41;99774.56;;;14.49;82.50
35908;BME280;22003;50.320;8.054;2022-09-02T07:03:07;99793.00;;;14.70;81.75
35908;BME280;22003;50.320;8.054;2022-09-02T07:06:04;99785.09;;;14.88;81.51
35908;BME280;22003;50.320;8.054;2022-09-02T07:08:36;99786.03;;;14.97;81.63
35908;BME280;22003;50.320;8.054;2022-09-02T07:11:03;99769.28;;;14.77;80.64
35908;BME280;22003;50.320;8.054;2022-09-02T07:13:29;99762.88;;;14.88;79.95
35908;BME280;22003;50.320;8.054;2022-09-02T07:15:54;99765.56;;;14.88;79.52
35908;BME280;22003;50.320;8.054;2022-09-02T07:18:19;99770.03;;;15.24;78.06
35908;BME280;22003;50.320;8.054;2022-09-02T07:20:47;99769.53;;;15.39;77.10
35908;BME280;22003;50.320;8.054;2022-09-02T07:23:13;99768.00;;;15.64;77.85
35908;BME280;22003;50.320;8.054;2022-09-02T07:25:39;99766.09;;;15.92;77.18
35908;BME280;22003;50.320;8.054;2022-09-02T07:28:09;99771.50;;;15.64;76.23
35908;BME280;22003;50.320;8.054;2022-09-02T07:30:35;99773.09;;;15.93;78.56
35908;BME280;22003;50.320;8.054;2022-09-02T07:33:00;99767.94;;;15.73;78.55
35908;BME280;22003;50.320;8.054;2022-09-02T07:35:27;99771.50;;;16.18;75.32
35908;BME280;22003;50.320;8.054;2022-09-02T07:37:52;99771.81;;;16.41;73.48
35908;BME280;22003;50.320;8.054;2022-09-02T07:40:17;99762.94;;;16.84;71.45
35908;BME280;22003;50.320;8.054;2022-09-02T07:42:43;99760.66;;;16.45;74.02
35908;BME280;22003;50.320;8.054;2022-09-02T07:45:10;99748.56;;;16.33;71.64
35908;BME280;22003;50.320;8.054;2022-09-02T07:47:35;99758.94;;;16.62;72.46
35908;BME280;22003;50.320;8.054;2022-09-02T07:50:01;99768.69;;;16.97;70.88
35908;BME280;22003;50.320;8.054;2022-09-02T07:52:26;99761.78;;;17.37;69.86
35908;BME280;22003;50.320;8.054;2022-09-02T07:54:51;99765.66;;;17.34;67.19
35908;BME280;22003;50.320;8.054;2022-09-02T07:57:17;99747.97;;;17.58;66.51
35908;BME280;22003;50.320;8.054;2022-09-02T07:59:43;99752.03;;;17.20;66.68
35908;BME280;22003;50.320;8.054;2022-09-02T08:02:10;99757.41;;;17.78;67.50
35908;BME280;22003;50.320;8.054;2022-09-02T08:04:36;99766.53;;;17.51;65.18
35908;BME280;22003;50.320;8.054;2022-09-02T08:07:01;99742.69;;;17.82;64.18
35908;BME280;22003;50.320;8.054;2022-09-02T08:09:27;99738.81;;;17.93;64.84
35908;BME280;22003;50.320;8.054;2022-09-02T08:11:52;99749.38;;;17.86;64.14
35908;BME280;22003;50.320;8.054;2022-09-02T08:14:21;99745.69;;;18.04;63.96
35908;BME280;22003;50.320;8.054;2022-09-02T08:16:51;99744.53;;;18.06;64.23
35908;BME280;22003;50.320;8.054;2022-09-02T08:19:17;99751.72;;;18.30;64.25
35908;BME280;22003;50.320;8.054;2022-09-02T08:21:43;99749.16;;;18.61;62.85
35908;BME280;22003;50.320;8.054;2022-09-02T08:24:09;99735.44;;;18.40;63.64
35908;BME280;22003;50.320;8.054;2022-09-02T08:26:34;99737.47;;;18.30;63.69
35908;BME280;22003;50.320;8.054;2022-09-02T08:29:04;99747.84;;;18.41;62.48
35908;BME280;22003;50.320;8.054;2022-09-02T08:31:29;99733.53;;;18.81;62.47
35908;BME280;22003;50.320;8.054;2022-09-02T08:33:56;99741.69;;;18.96;63.57
35908;BME280;22003;50.320;8.054;2022-09-02T08:36:21;99728.34;;;19.50;60.71
35908;BME280;22003;50.320;8.054;2022-09-02T08:38:47;99736.22;;;19.51;63.18
35908;BME280;22003;50.320;8.054;2022-09-02T08:41:21;99739.03;;;19.66;61.95
35908;BME280;22003;50.320;8.054;2022-09-02T08:43:49;99724.97;;;19.48;59.74
35908;BME280;22003;50.320;8.054;2022-09-02T08:46:17;99721.94;;;19.51;60.97
35908;BME280;22003;50.320;8.054;2022-09-02T08:48:53;99719.84;;;19.69;59.08
35908;BME280;22003;50.320;8.054;2022-09-02T08:51:41;99726.38;;;20.13;58.81
35908;BME280;22003;50.320;8.054;2022-09-02T08:56:56;99706.34;;;20.68;57.07
35908;BME280;22003;50.320;8.054;2022-09-02T08:59:24;99713.47;;;21.05;56.00
35908;BME280;22003;50.320;8.054;2022-09-02T09:04:55;99713.28;;;21.06;55.66
35908;BME280;22003;50.320;8.054;2022-09-02T09:07:36;99714.06;;;21.37;52.86
35908;BME280;22003;50.320;8.054;2022-09-02T09:12:56;99700.56;;;21.73;51.23
35908;BME280;22003;50.320;8.054;2022-09-02T09:20:28;99693.09;;;21.53;48.85
35908;BME280;22003;50.320;8.054;2022-09-02T09:22:57;99688.16;;;21.35;49.49
35908;BME280;22003;50.320;8.054;2022-09-02T09:25:25;99691.00;;;22.13;50.13
35908;BME280;22003;50.320;8.054;2022-09-02T09:27:59;99697.97;;;22.29;49.07
35908;BME280;22003;50.320;8.054;2022-09-02T09:30:26;99692.00;;;22.40;48.76
35908;BME280;22003;50.320;8.054;2022-09-02T09:32:53;99686.63;;;22.40;49.07
35908;BME280;22003;50.320;8.054;2022-09-02T09:35:20;99685.34;;;22.36;49.34
35908;BME280;22003;50.320;8.054;2022-09-02T09:37:47;99689.38;;;22.53;49.26
35908;BME280;22003;50.320;8.054;2022-09-02T09:40:22;99678.34;;;22.83;49.55
35908;BME280;22003;50.320;8.054;2022-09-02T09:42:55;99675.22;;;23.27;48.15
35908;BME280;22003;50.320;8.054;2022-09-02T09:45:29;99677.28;;;23.18;48.70
35908;BME280;22003;50.320;8.054;2022-09-02T09:50:45;99655.63;;;23.05;45.90
35908;BME280;22003;50.320;8.054;2022-09-02T09:53:24;99669.06;;;22.92;46.02
35908;BME280;22003;50.320;8.054;2022-09-02T09:58:16;99661.72;;;22.86;44.58
35908;BME280;22003;50.320;8.054;2022-09-02T10:00:41;99642.53;;;22.67;44.79
35908;BME280;22003;50.320;8.054;2022-09-02T10:03:07;99653.72;;;22.99;45.02
35908;BME280;22003;50.320;8.054;2022-09-02T10:05:39;99671.47;;;23.28;43.46
35908;BME280;22003;50.320;8.054;2022-09-02T10:08:18;99672.75;;;23.32;44.40
35908;BME280;22003;50.320;8.054;2022-09-02T10:11:05;99671.19;;;23.78;44.69
35908;BME280;22003;50.320;8.054;2022-09-02T10:13:34;99663.66;;;23.60;44.03
35908;BME280;22003;50.320;8.054;2022-09-02T10:19:03;99654.31;;;23.69;42.59
35908;BME280;22003;50.320;8.054;2022-09-02T10:24:28;99661.38;;;23.63;40.96
35908;BME280;22003;50.320;8.054;2022-09-02T10:26:59;99646.63;;;22.91;41.69
35908;BME280;22003;50.320;8.054;2022-09-02T10:40:43;99632.69;;;24.15;41.10
35908;BME280;22003;50.320;8.054;2022-09-02T10:45:57;99618.78;;;24.77;40.11
35908;BME280;22003;50.320;8.054;2022-09-02T10:51:00;99622.66;;;25.39;40.82
35908;BME280;22003;50.320;8.054;2022-09-02T10:56:14;99618.75;;;23.85;41.88
35908;BME280;22003;50.320;8.054;2022-09-02T10:59:05;99624.34;;;23.70;43.63
35908;BME280;22003;50.320;8.054;2022-09-02T11:01:56;99621.97;;;24.54;44.52
35908;BME280;22003;50.320;8.054;2022-09-02T11:07:03;99620.78;;;25.64;40.57
35908;BME280;22003;50.320;8.054;2022-09-02T11:09:35;99606.19;;;25.65;39.22
35908;BME280;22003;50.320;8.054;2022-09-02T11:12:09;99607.53;;;24.73;40.90
35908;BME280;22003;50.320;8.054;2022-09-02T11:15:03;99606.38;;;25.00;41.32
35908;BME280;22003;50.320;8.054;2022-09-02T11:17:38;99595.44;;;24.04;41.20
35908;BME280;22003;50.320;8.054;2022-09-02T11:20:17;99586.09;;;23.67;41.99
35908;BME280;22003;50.320;8.054;2022-09-02T11:22:55;99593.66;;;24.43;41.36
35908;BME280;22003;50.320;8.054;2022-09-02T11:30:52;99564.78;;;26.56;39.09
35908;BME280;22003;50.320;8.054;2022-09-02T11:33:27;99581.97;;;27.17;39.43
35908;BME280;22003;50.320;8.054;2022-09-02T11:35:57;99579.81;;;27.49;38.59
35908;BME280;22003;50.320;8.054;2022-09-02T11:38:40;99573.72;;;27.77;38.00
35908;BME280;22003;50.320;8.054;2022-09-02T11:41:25;99573.34;;;27.85;37.61
35908;BME280;22003;50.320;8.054;2022-09-02T11:49:55;99555.94;;;27.86;37.98
35908;BME280;22003;50.320;8.054;2022-09-02T11:55:38;99548.28;;;26.88;38.45
35908;BME280;22003;50.320;8.054;2022-09-02T11:58:05;99555.09;;;26.24;38.14
35908;BME280;22003;50.320;8.054;2022-09-02T12:03:26;99552.47;;;26.36;39.05
35908;BME280;22003;50.320;8.054;2022-09-02T12:06:12;99553.38;;;27.26;39.09
35908;BME280;22003;50.320;8.054;2022-09-02T12:11:07;99551.50;;;27.27;38.02
35908;BME280;22003;50.320;8.054;2022-09-02T12:13:46;99535.13;;;26.55;37.79
35908;BME280;22003;50.320;8.054;2022-09-02T12:21:15;99521.69;;;26.42;37.23
35908;BME280;22003;50.320;8.054;2022-09-02T12:26:19;99530.97;;;27.66;36.42
35908;BME280;22003;50.320;8.054;2022-09-02T12:28:45;99533.47;;;27.91;36.75
35908;BME280;22003;50.320;8.054;2022-09-02T12:31:41;99526.25;;;26.78;35.97
35908;BME280;22003;50.320;8.054;2022-09-02T12:36:57;99517.91;;;25.63;37.76
35908;BME280;22003;50.320;8.054;2022-09-02T12:41:57;99528.53;;;25.89;37.32
35908;BME280;22003;50.320;8.054;2022-09-02T12:47:24;99526.22;;;27.38;36.51
35908;BME280;22003;50.320;8.054;2022-09-02T12:57:42;99517.09;;;28.38;36.98
35908;BME280;22003;50.320;8.054;2022-09-02T13:03:34;99511.69;;;28.55;35.78
35908;BME280;22003;50.320;8.054;2022-09-02T13:06:20;99500.13;;;28.64;35.02
35908;BME280;22003;50.320;8.054;2022-09-02T13:12:11;99496.97;;;28.84;35.00
35908;BME280;22003;50.320;8.054;2022-09-02T13:14:51;99477.66;;;28.17;35.26
35908;BME280;22003;50.320;8.054;2022-09-02T13:18:00;99488.75;;;28.67;35.89
35908;BME280;22003;50.320;8.054;2022-09-02T13:28:44;99483.94;;;28.18;35.69
35908;BME280;22003;50.320;8.054;2022-09-02T13:31:18;99484.53;;;27.14;35.50
35908;BME280;22003;50.320;8.054;2022-09-02T13:33:45;99475.25;;;26.62;36.08
35908;BME280;22003;50.320;8.054;2022-09-02T13:36:21;99484.72;;;27.78;36.65
35908;BME280;22003;50.320;8.054;2022-09-02T13:38:48;99480.53;;;27.28;36.32
35908;BME280;22003;50.320;8.054;2022-09-02T13:41:30;99469.41;;;27.42;35.65
35908;BME280;22003;50.320;8.054;2022-09-02T13:44:06;99456.31;;;27.74;37.06
35908;BME280;22003;50.320;8.054;2022-09-02T13:46:32;99442.81;;;27.55;36.27
35908;BME280;22003;50.320;8.054;2022-09-02T13:48:57;99454.41;;;26.85;36.49
35908;BME280;22003;50.320;8.054;2022-09-02T13:51:22;99447.28;;;27.15;36.66
35908;BME280;22003;50.320;8.054;2022-09-02T13:53:48;99446.09;;;26.69;36.90
35908;BME280;22003;50.320;8.054;2022-09-02T13:56:15;99444.25;;;26.93;36.94
35908;BME280;22003;50.320;8.054;2022-09-02T13:58:50;99444.22;;;27.23;37.38
35908;BME280;22003;50.320;8.054;2022-09-02T14:01:33;99441.09;;;26.96;36.30
35908;BME280;22003;50.320;8.054;2022-09-02T14:04:03;99428.72;;;26.10;37.01
35908;BME280;22003;50.320;8.054;2022-09-02T14:06:33;99436.44;;;26.73;37.76
35908;BME280;22003;50.320;8.054;2022-09-02T14:09:02;99430.75;;;27.16;37.91
35908;BME280;22003;50.320;8.054;2022-09-02T14:11:37;99426.09;;;27.05;37.46
35908;BME280;22003;50.320;8.054;2022-09-02T14:14:04;99420.09;;;27.50;37.14
35908;BME280;22003;50.320;8.054;2022-09-02T14:16:35;99428.50;;;27.36;36.66
35908;BME280;22003;50.320;8.054;2022-09-02T14:19:11;99430.94;;;27.97;36.22
35908;BME280;22003;50.320;8.054;2022-09-02T14:21:56;99412.75;;;28.14;35.82
35908;BME280;22003;50.320;8.054;2022-09-02T14:24:24;99386.66;;;27.38;35.87
35908;BME280;22003;50.320;8.054;2022-09-02T14:26:59;99408.28;;;27.44;36.55
35908;BME280;22003;50.320;8.054;2022-09-02T14:29:27;99404.50;;;27.10;36.65
35908;BME280;22003;50.320;8.054;2022-09-02T14:32:09;99400.47;;;27.36;35.99
35908;BME280;22003;50.320;8.054;2022-09-02T14:34:41;99401.41;;;27.53;36.46
35908;BME280;22003;50.320;8.054;2022-09-02T14:37:18;99386.50;;;27.56;36.45
35908;BME280;22003;50.320;8.054;2022-09-02T14:40:09;99409.31;;;27.67;36.48
35908;BME280;22003;50.320;8.054;2022-09-02T14:45:10;99380.22;;;26.13;36.58
35908;BME280;22003;50.320;8.054;2022-09-02T14:47:37;99386.63;;;26.49;37.01
35908;BME280;22003;50.320;8.054;2022-09-02T14:50:03;99390.97;;;26.20;37.73
35908;BME280;22003;50.320;8.054;2022-09-02T14:52:30;99385.88;;;26.95;37.07
35908;BME280;22003;50.320;8.054;2022-09-02T14:55:00;99383.91;;;27.26;37.10
35908;BME280;22003;50.320;8.054;2022-09-02T14:57:29;99370.66;;;27.06;37.28
35908;BME280;22003;50.320;8.054;2022-09-02T14:59:57;99370.66;;;27.06;37.07
35908;BME280;22003;50.320;8.054;2022-09-02T15:04:51;99371.50;;;27.30;37.60
35908;BME280;22003;50.320;8.054;2022-09-02T15:07:16;99380.25;;;27.44;37.46
35908;BME280;22003;50.320;8.054;2022-09-02T15:09:41;99363.47;;;27.12;36.52
35908;BME280;22003;50.320;8.054;2022-09-02T15:12:09;99379.00;;;26.09;36.77
35908;BME280;22003;50.320;8.054;2022-09-02T15:14:35;99383.19;;;26.23;38.29
35908;BME280;22003;50.320;8.054;2022-09-02T15:17:03;99348.50;;;25.95;38.85
35908;BME280;22003;50.320;8.054;2022-09-02T15:19:28;99340.41;;;26.07;37.32
35908;BME280;22003;50.320;8.054;2022-09-02T15:21:54;99355.47;;;26.21;37.79
35908;BME280;22003;50.320;8.054;2022-09-02T15:24:19;99354.81;;;26.38;37.84
35908;BME280;22003;50.320;8.054;2022-09-02T15:26:44;99339.13;;;26.10;37.48
35908;BME280;22003;50.320;8.054;2022-09-02T15:29:09;99351.59;;;26.41;37.34
35908;BME280;22003;50.320;8.054;2022-09-02T15:31:35;99363.66;;;25.85;37.66
35908;BME280;22003;50.320;8.054;2022-09-02T15:34:00;99357.94;;;25.38;39.12
35908;BME280;22003;50.320;8.054;2022-09-02T15:36:27;99350.63;;;25.75;37.65
35908;BME280;22003;50.320;8.054;2022-09-02T15:38:52;99340.66;;;25.69;38.61
35908;BME280;22003;50.320;8.054;2022-09-02T15:41:20;99359.22;;;25.72;38.71
35908;BME280;22003;50.320;8.054;2022-09-02T15:43:46;99363.00;;;25.89;37.66
35908;BME280;22003;50.320;8.054;2022-09-02T15:48:47;99354.44;;;25.31;37.81
35908;BME280;22003;50.320;8.054;2022-09-02T15:51:14;99351.88;;;25.17;37.73
35908;BME280;22003;50.320;8.054;2022-09-02T15:53:40;99352.13;;;25.16;38.41
35908;BME280;22003;50.320;8.054;2022-09-02T15:56:20;99355.50;;;25.11;38.41
35908;BME280;22003;50.320;8.054;2022-09-02T15:58:46;99323.31;;;24.71;38.78
35908;BME280;22003;50.320;8.054;2022-09-02T16:01:12;99335.31;;;24.57;39.21
35908;BME280;22003;50.320;8.054;2022-09-02T16:03:38;99336.22;;;24.69;39.35
35908;BME280;22003;50.320;8.054;2022-09-02T16:06:05;99345.19;;;24.95;39.65
35908;BME280;22003;50.320;8.054;2022-09-02T16:08:32;99319.72;;;24.78;38.36
35908;BME280;22003;50.320;8.054;2022-09-02T16:11:03;99318.25;;;24.75;38.82
35908;BME280;22003;50.320;8.054;2022-09-02T16:13:29;99327.25;;;25.19;38.71
35908;BME280;22003;50.320;8.054;2022-09-02T16:16:02;99332.84;;;25.24;39.05
35908;BME280;22003;50.320;8.054;2022-09-02T16:18:28;99315.72;;;25.05;38.53
35908;BME280;22003;50.320;8.054;2022-09-02T16:20:53;99312.59;;;25.01;37.81
35908;BME280;22003;50.320;8.054;2022-09-02T16:23:18;99320.47;;;24.85;38.13
35908;BME280;22003;50.320;8.054;2022-09-02T16:25:44;99306.88;;;24.91;38.33
35908;BME280;22003;50.320;8.054;2022-09-02T16:28:09;99311.75;;;24.83;38.24
35908;BME280;22003;50.320;8.054;2022-09-02T16:30:35;99322.19;;;24.79;38.57
35908;BME280;22003;50.320;8.054;2022-09-02T16:33:01;99317.94;;;24.65;38.50
35908;BME280;22003;50.320;8.054;2022-09-02T16:35:26;99304.13;;;24.16;39.04
35908;BME280;22003;50.320;8.054;2022-09-02T16:37:51;99321.91;;;24.37;39.04
35908;BME280;22003;50.320;8.054;2022-09-02T16:40:21;99305.16;;;24.47;40.05
35908;BME280;22003;50.320;8.054;2022-09-02T16:42:47;99310.97;;;24.51;39.02
35908;BME280;22003;50.320;8.054;2022-09-02T16:45:12;99318.09;;;24.45;39.93
35908;BME280;22003;50.320;8.054;2022-09-02T16:47:38;99322.25;;;24.47;39.53
35908;BME280;22003;50.320;8.054;2022-09-02T16:50:04;99313.28;;;24.47;39.04
35908;BME280;22003;50.320;8.054;2022-09-02T16:52:31;99312.88;;;24.50;39.88
35908;BME280;22003;50.320;8.054;2022-09-02T16:54:59;99320.47;;;24.85;39.92
35908;BME280;22003;50.320;8.054;2022-09-02T16:57:24;99302.53;;;25.09;40.43
35908;BME280;22003;50.320;8.054;2022-09-02T16:59:49;99296.75;;;25.42;38.34
35908;BME280;22003;50.320;8.054;2022-09-02T17:02:16;99315.59;;;26.33;36.47
35908;BME280;22003;50.320;8.054;2022-09-02T17:04:42;99313.19;;;26.79;36.04
35908;BME280;22003;50.320;8.054;2022-09-02T17:07:08;99289.66;;;27.31;36.50
35908;BME280;22003;50.320;8.054;2022-09-02T17:09:33;99311.09;;;27.28;36.08
35908;BME280;22003;50.320;8.054;2022-09-02T17:11:59;99310.38;;;27.84;35.54
35908;BME280;22003;50.320;8.054;2022-09-02T17:14:24;99297.22;;;27.41;35.90
35908;BME280;22003;50.320;8.054;2022-09-02T17:16:50;99307.31;;;27.17;36.13
35908;BME280;22003;50.320;8.054;2022-09-02T17:19:16;99312.94;;;26.15;37.08
35908;BME280;22003;50.320;8.054;2022-09-02T17:21:52;99320.44;;;24.66;39.11
35908;BME280;22003;50.320;8.054;2022-09-02T17:24:23;99314.22;;;23.96;39.73
35908;BME280;22003;50.320;8.054;2022-09-02T17:26:50;99265.84;;;23.23;40.06
35908;BME280;22003;50.320;8.054;2022-09-02T17:29:18;99285.22;;;23.13;41.45
35908;BME280;22003;50.320;8.054;2022-09-02T17:31:45;99286.25;;;23.12;42.24
35908;BME280;22003;50.320;8.054;2022-09-02T17:34:11;99309.72;;;23.18;40.91
35908;BME280;22003;50.320;8.054;2022-09-02T17:36:39;99306.88;;;22.67;41.47
35908;BME280;22003;50.320;8.054;2022-09-02T17:39:12;99320.78;;;22.44;41.95
35908;BME280;22003;50.320;8.054;2022-09-02T17:41:38;99320.78;;;22.77;41.33
35908;BME280;22003;50.320;8.054;2022-09-02T17:44:35;99330.34;;;22.40;42.67
35908;BME280;22003;50.320;8.054;2022-09-02T17:47:06;99324.28;;;22.31;41.38
35908;BME280;22003;50.320;8.054;2022-09-02T17:49:32;99296.00;;;22.01;41.48
35908;BME280;22003;50.320;8.054;2022-09-02T17:52:03;99315.47;;;21.83;43.53
35908;BME280;22003;50.320;8.054;2022-09-02T17:54:29;99309.50;;;21.46;45.05
35908;BME280;22003;50.320;8.054;2022-09-02T17:57:21;99323.63;;;21.20;46.07
35908;BME280;22003;50.320;8.054;2022-09-02T18:05:24;99314.16;;;20.68;46.86
35908;BME280;22003;50.320;8.054;2022-09-02T18:08:12;99319.22;;;20.50;46.96
35908;BME280;22003;50.320;8.054;2022-09-02T18:10:48;99327.00;;;20.66;47.48
35908;BME280;22003;50.320;8.054;2022-09-02T18:13:20;99319.69;;;20.39;47.18
35908;BME280;22003;50.320;8.054;2022-09-02T18:16:24;99326.88;;;20.10;48.28
35908;BME280;22003;50.320;8.054;2022-09-02T18:21:28;99308.06;;;19.74;47.55
35908;BME280;22003;50.320;8.054;2022-09-02T18:24:18;99326.19;;;19.87;48.13
35908;BME280;22003;50.320;8.054;2022-09-02T18:32:15;99331.81;;;19.92;47.25
35908;BME280;22003;50.320;8.054;2022-09-02T18:40:51;99335.56;;;19.76;47.92
35908;BME280;22003;50.320;8.054;2022-09-02T18:46:12;99309.56;;;19.03;48.09
35908;BME280;22003;50.320;8.054;2022-09-02T18:48:39;99311.16;;;18.97;48.10
35908;BME280;22003;50.320;8.054;2022-09-02T18:51:17;99336.59;;;18.71;49.25
35908;BME280;22003;50.320;8.054;2022-09-02T18:53:53;99344.63;;;18.86;49.08
35908;BME280;22003;50.320;8.054;2022-09-02T18:56:21;99328.88;;;18.45;49.65
35908;BME280;22003;50.320;8.054;2022-09-02T18:58:55;99344.16;;;18.60;49.69
35908;BME280;22003;50.320;8.054;2022-09-02T19:03:52;99338.91;;;18.06;51.32
35908;BME280;22003;50.320;8.054;2022-09-02T19:06:23;99356.97;;;17.81;52.76
35908;BME280;22003;50.320;8.054;2022-09-02T19:08:57;99355.66;;;17.29;53.89
35908;BME280;22003;50.320;8.054;2022-09-02T19:11:24;99353.78;;;17.38;53.60
35908;BME280;22003;50.320;8.054;2022-09-02T19:13:55;99353.84;;;17.61;53.72
35908;BME280;22003;50.320;8.054;2022-09-02T19:18:47;99359.88;;;17.63;53.16
35908;BME280;22003;50.320;8.054;2022-09-02T19:21:17;99356.16;;;17.64;53.49
35908;BME280;22003;50.320;8.054;2022-09-02T19:23:45;99334.72;;;17.33;52.91
35908;BME280;22003;50.320;8.054;2022-09-02T19:26:11;99359.72;;;16.93;55.73
35908;BME280;22003;50.320;8.054;2022-09-02T19:28:38;99364.44;;;16.66;56.29
35908;BME280;22003;50.320;8.054;2022-09-02T19:31:04;99365.78;;;16.78;56.10
35908;BME280;22003;50.320;8.054;2022-09-02T19:33:31;99348.06;;;16.61;57.18